Time;durP1;ratioP1;P1;durP2;ratioP2;P2;SDS_P1;SDS_P2;PMS_P1;PMS_P2;Temp;Humidity;BMP_temperature;BMP_pressure;BME280_temperature;BME280_humidity;BME280_pressure;Samples;Min_cycle;Max_cycle;Signal;HPM_P1;HPM_P2
2023/12/01 00:01:26;;;;;;;34.03;17.67;;;;;;;-1.51;100.00;99746.19;5036976;28;20254;-75
2023/12/01 00:03:52;;;;;;;35.13;18.93;;;;;;;-1.52;100.00;99747.97;5040980;28;20207;-74
2023/12/01 00:06:18;;;;;;;36.70;18.53;;;;;;;-1.50;100.00;99739.97;5043047;28;20230;-74
2023/12/01 00:08:45;;;;;;;35.50;19.20;;;;;;;-1.50;100.00;99740.72;5043534;28;20590;-75
2023/12/01 00:11:11;;;;;;;38.13;19.60;;;;;;;-1.49;100.00;99736.31;5041249;28;20212;-75
2023/12/01 00:13:37;;;;;;;39.20;20.20;;;;;;;-1.48;100.00;99735.28;5040096;28;20211;-74
2023/12/01 00:16:04;;;;;;;40.60;21.60;;;;;;;-1.46;100.00;99743.56;5043063;28;20236;-75
2023/12/01 00:18:32;;;;;;;39.57;19.60;;;;;;;-1.45;100.00;99735.50;5043696;28;20195;-74
2023/12/01 00:20:58;;;;;;;38.93;20.63;;;;;;;-1.43;100.00;99737.84;5050461;28;20199;-75
2023/12/01 00:23:25;;;;;;;45.13;21.20;;;;;;;-1.42;100.00;99732.41;5042718;28;20203;-75
2023/12/01 00:25:51;;;;;;;39.40;21.93;;;;;;;-1.38;100.00;99740.41;5046337;28;20207;-75
2023/12/01 00:28:17;;;;;;;48.07;23.77;;;;;;;-1.37;100.00;99740.13;5043350;28;20195;-75
2023/12/01 00:30:44;;;;;;;46.27;21.70;;;;;;;-1.36;100.00;99743.50;5042356;28;20208;-75
2023/12/01 00:33:10;;;;;;;43.43;22.33;;;;;;;-1.35;100.00;99738.03;5039464;28;20199;-75
2023/12/01 00:35:38;;;;;;;50.37;25.70;;;;;;;-1.34;100.00;99738.84;5045729;28;20293;-74
2023/12/01 00:38:05;;;;;;;38.93;20.60;;;;;;;-1.32;100.00;99737.53;5042000;28;20203;-75
2023/12/01 00:40:32;;;;;;;38.57;20.80;;;;;;;-1.30;100.00;99740.59;5042528;28;20290;-75
2023/12/01 00:42:58;;;;;;;44.83;21.27;;;;;;;-1.29;100.00;99743.97;5045181;28;20210;-75
2023/12/01 00:45:25;;;;;;;41.87;21.37;;;;;;;-1.28;100.00;99750.69;5044264;28;20199;-73
2023/12/01 00:47:52;;;;;;;37.83;20.57;;;;;;;-1.26;100.00;99756.41;5041504;28;20315;-72
2023/12/01 00:50:19;;;;;;;40.37;19.97;;;;;;;-1.26;100.00;99753.81;5047844;28;20229;-72
2023/12/01 00:52:46;;;;;;;39.87;19.83;;;;;;;-1.25;100.00;99763.88;5046710;28;20526;-72
2023/12/01 00:55:13;;;;;;;30.53;17.93;;;;;;;-1.24;100.00;99775.81;5044990;28;20231;-73
2023/12/01 00:57:40;;;;;;;38.90;18.73;;;;;;;-1.23;100.00;99772.19;5043570;28;20226;-75
2023/12/01 01:00:07;;;;;;;35.03;18.00;;;;;;;-1.22;100.00;99776.31;5043987;28;20214;-75
2023/12/01 01:02:34;;;;;;;37.33;19.50;;;;;;;-1.22;100.00;99773.72;5044278;28;20294;-75
2023/12/01 01:05:00;;;;;;;37.37;19.47;;;;;;;-1.22;100.00;99773.72;5045817;28;20201;-75
2023/12/01 01:07:27;;;;;;;36.47;18.13;;;;;;;-1.21;100.00;99777.84;5045151;28;20227;-75
2023/12/01 01:09:54;;;;;;;34.93;19.40;;;;;;;-1.19;100.00;99787.94;5038106;28;20702;-75
2023/12/01 01:12:22;;;;;;;36.70;18.23;;;;;;;-1.19;100.00;99793.88;5046475;28;20199;-75
2023/12/01 01:14:48;;;;;;;40.37;19.70;;;;;;;-1.18;100.00;99789.50;5045133;28;20691;-75
2023/12/01 01:17:14;;;;;;;39.20;19.60;;;;;;;-1.17;100.00;99794.41;5039022;28;20229;-75
2023/12/01 01:19:41;;;;;;;36.60;19.60;;;;;;;-1.15;100.00;99796.75;5076311;28;20204;-75
2023/12/01 01:22:07;;;;;;;35.00;19.37;;;;;;;-1.14;100.00;99800.88;5039976;28;20663;-75
2023/12/01 01:24:34;;;;;;;44.13;19.23;;;;;;;-1.13;100.00;99803.22;5041253;28;20662;-74
2023/12/01 01:27:01;;;;;;;41.43;21.63;;;;;;;-1.12;100.00;99796.97;5045534;28;20207;-74
2023/12/01 01:29:28;;;;;;;32.57;18.70;;;;;;;-1.09;100.00;99800.84;5045670;28;20203;-75
2023/12/01 01:31:54;;;;;;;44.73;21.37;;;;;;;-1.09;100.00;99806.03;5071859;28;20625;-75
2023/12/01 01:34:21;;;;;;;38.10;20.27;;;;;;;-1.10;100.00;99797.47;5039294;28;20294;-75
2023/12/01 01:36:48;;;;;;;35.93;19.37;;;;;;;-1.09;100.00;99801.59;5042391;28;20232;-74
2023/12/01 01:39:15;;;;;;;34.37;18.90;;;;;;;-1.08;100.00;99790.22;5040631;28;20208;-75
2023/12/01 01:41:42;;;;;;;36.80;20.20;;;;;;;-1.06;100.00;99798.50;5056733;28;20220;-74
2023/12/01 01:44:10;;;;;;;36.67;20.60;;;;;;;-1.07;100.00;99795.13;5041694;28;20722;-75
2023/12/01 01:46:36;;;;;;;39.27;20.70;;;;;;;-1.05;100.00;99791.50;5043604;28;20694;-75
2023/12/01 01:49:04;;;;;;;40.83;21.13;;;;;;;-1.06;100.00;99793.31;5040390;28;20282;-74
2023/12/01 01:51:31;;;;;;;39.20;20.97;;;;;;;-1.04;100.00;99788.63;5042717;28;20200;-75
2023/12/01 01:53:57;;;;;;;38.70;20.60;;;;;;;-1.04;100.00;99787.88;5058395;28;20235;-75
2023/12/01 01:56:24;;;;;;;43.27;21.23;;;;;;;-1.03;100.00;99781.63;5043837;28;20330;-75
2023/12/01 01:58:51;;;;;;;41.13;21.33;;;;;;;-1.04;100.00;99774.91;5038932;28;20200;-75
2023/12/01 02:01:19;;;;;;;34.00;19.37;;;;;;;-1.03;100.00;99773.88;5042516;28;20286;-73
2023/12/01 02:03:45;;;;;;;34.70;20.13;;;;;;;-1.03;100.00;99782.44;5044371;28;20206;-75
2023/12/01 02:06:12;;;;;;;42.90;21.50;;;;;;;-1.03;100.00;99779.84;5041381;28;20219;-75
2023/12/01 02:08:39;;;;;;;42.80;22.97;;;;;;;-1.03;100.00;99774.66;5040958;28;20196;-75
2023/12/01 02:11:06;;;;;;;42.10;22.33;;;;;;;-1.03;100.00;99773.88;5039859;28;20273;-75
2023/12/01 02:13:32;;;;;;;38.73;20.63;;;;;;;-1.02;100.00;99775.41;5042359;28;20199;-75
2023/12/01 02:16:00;;;;;;;39.13;21.27;;;;;;;-1.03;100.00;99777.25;5044558;28;20247;-75
2023/12/01 02:18:30;;;;;;;37.97;21.40;;;;;;;-1.02;100.00;99782.13;5041240;28;20203;-75
2023/12/01 02:20:58;;;;;;;45.83;22.03;;;;;;;-1.03;100.00;99776.47;5047325;28;20547;-75
2023/12/01 02:23:27;;;;;;;39.10;20.93;;;;;;;-1.02;100.00;99773.59;5038733;28;20202;-75
2023/12/01 02:25:54;;;;;;;39.90;22.27;;;;;;;-1.02;100.00;99775.41;5043131;28;20206;-75
2023/12/01 02:28:21;;;;;;;43.43;22.70;;;;;;;-1.03;100.00;99782.44;5039893;28;20222;-75
2023/12/01 02:30:50;;;;;;;42.00;21.93;;;;;;;-1.02;100.00;99781.38;5040299;28;20199;-75
2023/12/01 02:33:17;;;;;;;40.23;21.53;;;;;;;-1.02;100.00;99782.13;5069514;28;20745;-75
2023/12/01 02:35:47;;;;;;;38.33;21.77;;;;;;;-1.02;100.00;99791.75;5040749;28;20917;-75
2023/12/01 02:38:14;;;;;;;43.00;21.77;;;;;;;-1.02;100.00;99783.97;5039951;28;20214;-74
2023/12/01 02:40:43;;;;;;;45.90;22.30;;;;;;;-1.03;100.00;99779.06;5042446;28;20670;-75
2023/12/01 02:43:10;;;;;;;43.53;22.57;;;;;;;-1.03;100.00;99776.47;5041677;28;20290;-75
2023/12/01 02:45:37;;;;;;;42.23;21.63;;;;;;;-1.04;100.00;99769.75;5042895;28;20695;-74
2023/12/01 02:48:04;;;;;;;40.27;21.80;;;;;;;-1.05;100.00;99774.13;5040225;28;20195;-75
2023/12/01 02:50:31;;;;;;;41.50;22.37;;;;;;;-1.05;100.00;99775.97;5040152;28;20200;-75
2023/12/01 02:52:57;;;;;;;45.60;23.23;;;;;;;-1.04;100.00;99775.66;5045342;28;20203;-75
2023/12/01 02:55:23;;;;;;;43.23;21.80;;;;;;;-1.07;100.00;99771.81;5042374;28;20229;-74
2023/12/01 02:57:51;;;;;;;44.80;21.93;;;;;;;-1.07;100.00;99773.63;5040843;28;20220;-75
2023/12/01 03:00:17;;;;;;;40.77;21.77;;;;;;;-1.08;100.00;99769.50;5039780;28;20202;-75
2023/12/01 03:02:45;;;;;;;42.77;22.67;;;;;;;-1.09;100.00;99773.13;5038487;28;20241;-75
2023/12/01 03:05:11;;;;;;;44.20;21.80;;;;;;;-1.09;100.00;99772.34;5044324;28;20244;-74
2023/12/01 03:07:38;;;;;;;39.90;22.77;;;;;;;-1.09;100.00;99767.19;5042977;28;20215;-76
2023/12/01 03:10:07;;;;;;;40.20;22.13;;;;;;;-1.10;100.00;99776.00;5041257;28;20595;-75
2023/12/01 03:12:33;;;;;;;45.50;21.90;;;;;;;-1.09;100.00;99780.13;5043302;28;20317;-75
2023/12/01 03:15:01;;;;;;;46.73;22.60;;;;;;;-1.09;100.00;99782.72;5044443;28;20217;-75
2023/12/01 03:17:28;;;;;;;44.77;23.40;;;;;;;-1.10;100.00;99779.34;5044738;28;20237;-75
2023/12/01 03:19:54;;;;;;;41.27;22.00;;;;;;;-1.09;100.00;99778.28;5046500;28;20285;-75
2023/12/01 03:22:20;;;;;;;45.27;22.70;;;;;;;-1.08;100.00;99781.66;5041244;28;20204;-75
2023/12/01 03:24:47;;;;;;;42.07;22.70;;;;;;;-1.09;100.00;99780.13;5045435;28;20249;-75
2023/12/01 03:27:14;;;;;;;43.33;21.53;;;;;;;-1.09;100.00;99782.72;5043513;28;20226;-75
2023/12/01 03:29:41;;;;;;;38.93;20.93;;;;;;;-1.09;100.00;99777.53;5040496;28;20285;-75
2023/12/01 03:32:09;;;;;;;42.83;23.20;;;;;;;-1.10;100.00;99781.94;5041098;28;20215;-75
2023/12/01 03:34:36;;;;;;;46.63;21.40;;;;;;;-1.09;100.00;99787.91;5039152;28;20234;-75
2023/12/01 03:37:03;;;;;;;42.17;20.53;;;;;;;-1.09;100.00;99775.69;5040404;28;20694;-75
2023/12/01 03:39:30;;;;;;;41.93;22.03;;;;;;;-1.09;100.00;99778.28;5041020;28;20210;-75
2023/12/01 03:41:57;;;;;;;38.43;20.93;;;;;;;-1.09;100.00;99785.31;5041113;28;20237;-75
2023/12/01 03:44:23;;;;;;;39.33;21.73;;;;;;;-1.09;100.00;99785.31;5037321;28;20211;-75
2023/12/01 03:46:51;;;;;;;39.70;19.90;;;;;;;-1.12;100.00;99795.16;5039105;28;20302;-75
2023/12/01 03:49:18;;;;;;;36.03;19.40;;;;;;;-1.13;100.00;99792.84;5040845;28;20199;-75
2023/12/01 03:51:45;;;;;;;38.37;19.73;;;;;;;-1.13;100.00;99792.84;5037681;28;20573;-75
2023/12/01 03:54:11;;;;;;;40.30;20.33;;;;;;;-1.13;100.00;99783.25;5044557;28;20195;-75
2023/12/01 03:56:38;;;;;;;39.03;20.07;;;;;;;-1.12;100.00;99797.72;5059483;28;20302;-75
2023/12/01 03:59:09;;;;;;;42.77;21.60;;;;;;;-1.13;100.00;99801.38;5040808;28;20196;-75
2023/12/01 04:01:36;;;;;;;39.80;20.97;;;;;;;-1.13;100.00;99798.78;5044572;28;20200;-75
2023/12/01 04:04:04;;;;;;;44.13;22.60;;;;;;;-1.12;100.00;99804.75;5044476;28;20712;-75
2023/12/01 04:06:32;;;;;;;42.83;22.60;;;;;;;-1.10;100.00;99805.25;5041960;28;20215;-75
2023/12/01 04:09:05;;;;;;;40.97;22.40;;;;;;;-1.09;100.00;99804.19;5039714;28;20249;-75
2023/12/01 04:11:31;;;;;;;38.17;20.80;;;;;;;-1.09;100.00;99809.38;5044358;28;20199;-73
2023/12/01 04:13:57;;;;;;;36.63;21.10;;;;;;;-1.09;100.00;99806.78;5073788;28;20872;-75
2023/12/01 04:16:24;;;;;;;41.53;22.97;;;;;;;-1.07;100.00;99815.09;5040064;28;20230;-74
2023/12/01 04:18:51;;;;;;;41.53;20.97;;;;;;;-1.07;100.00;99812.50;5044284;28;20717;-75
2023/12/01 04:21:17;;;;;;;40.63;22.23;;;;;;;-1.05;100.00;99817.41;5043697;28;20313;-75
2023/12/01 04:23:45;;;;;;;43.80;22.10;;;;;;;-1.05;100.00;99815.56;5044647;28;20219;-75
2023/12/01 04:26:12;;;;;;;41.17;21.77;;;;;;;-1.05;100.00;99820.00;5042288;28;20219;-75
2023/12/01 04:28:38;;;;;;;40.10;21.93;;;;;;;-1.03;100.00;99825.69;5061425;28;20421;-75
2023/12/01 04:31:05;;;;;;;42.53;21.33;;;;;;;-1.03;100.00;99818.69;5042044;28;20684;-74
2023/12/01 04:33:32;;;;;;;33.73;19.77;;;;;;;-1.02;100.00;99814.28;5043023;28;20683;-75
2023/12/01 04:35:58;;;;;;;41.63;20.57;;;;;;;-1.02;100.00;99813.22;5040340;28;20270;-74
2023/12/01 04:38:25;;;;;;;36.80;20.17;;;;;;;-1.00;100.00;99818.16;5043447;28;20203;-75
2023/12/01 04:40:54;;;;;;;42.33;20.20;;;;;;;-1.00;100.00;99819.97;5043918;28;20200;-75
2023/12/01 04:43:20;;;;;;;37.30;20.30;;;;;;;-0.99;100.00;99819.69;5046310;28;20199;-75
2023/12/01 04:45:47;;;;;;;40.23;21.50;;;;;;;-0.98;100.00;99823.06;5038991;28;20230;-72
2023/12/01 04:48:13;;;;;;;41.70;21.00;;;;;;;-0.98;100.00;99827.19;5045251;28;20207;-75
2023/12/01 04:50:47;;;;;;;38.87;20.30;;;;;;;-0.97;100.00;99825.41;5038371;28;20202;-75
2023/12/01 04:53:13;;;;;;;39.73;21.70;;;;;;;-0.97;100.00;99822.81;5039960;28;20559;-75
2023/12/01 04:55:39;;;;;;;38.47;20.50;;;;;;;-0.97;100.00;99825.41;5047704;28;20577;-75
2023/12/01 04:58:07;;;;;;;35.17;19.00;;;;;;;-0.96;100.00;99821.75;5044074;28;20188;-75
2023/12/01 05:00:33;;;;;;;36.67;20.27;;;;;;;-0.97;100.00;99815.03;5039958;28;20200;-75
2023/12/01 05:03:01;;;;;;;37.73;20.03;;;;;;;-0.97;100.00;99808.00;5041522;28;20199;-75
2023/12/01 05:05:29;;;;;;;36.90;20.23;;;;;;;-0.97;100.00;99810.59;5040826;28;20195;-75
2023/12/01 05:07:57;;;;;;;37.40;19.97;;;;;;;-0.96;100.00;99819.16;5043140;28;20220;-75
2023/12/01 05:10:24;;;;;;;32.67;19.07;;;;;;;-0.97;100.00;99820.97;5039055;28;20607;-75
2023/12/01 05:12:54;;;;;;;41.20;20.07;;;;;;;-0.98;100.00;99822.00;5039495;28;20805;-75
2023/12/01 05:15:24;;;;;;;39.27;19.73;;;;;;;-0.96;100.00;99834.72;5041083;28;20641;-75
2023/12/01 05:17:54;;;;;;;37.50;19.50;;;;;;;-0.97;100.00;99833.16;5042092;28;20747;-75
2023/12/01 05:20:23;;;;;;;37.43;19.37;;;;;;;-0.96;100.00;99832.13;5037934;28;20218;-75
2023/12/01 05:22:52;;;;;;;39.17;20.03;;;;;;;-0.95;100.00;99830.31;5014997;28;20199;-75
2023/12/01 05:25:19;;;;;;;35.10;19.83;;;;;;;-0.94;100.00;99837.03;5067192;28;20192;-75
2023/12/01 05:27:47;;;;;;;36.93;20.40;;;;;;;-0.93;100.00;99841.16;5041028;28;20207;-75
2023/12/01 05:30:15;;;;;;;39.70;21.20;;;;;;;-0.93;100.00;99829.00;5038524;28;20200;-75
2023/12/01 05:32:44;;;;;;;34.97;19.80;;;;;;;-0.92;100.00;99838.31;5043665;28;20210;-75
2023/12/01 05:35:11;;;;;;;40.00;20.77;;;;;;;-0.93;100.00;99840.13;5036042;28;20195;-75
2023/12/01 05:37:39;;;;;;;43.40;20.63;;;;;;;-0.93;100.00;99834.19;5041383;28;20211;-75
2023/12/01 05:40:08;;;;;;;38.33;22.10;;;;;;;-0.93;100.00;99832.34;5041931;28;20203;-75
2023/12/01 05:42:34;;;;;;;38.80;21.77;;;;;;;-0.94;100.00;99840.38;5039956;28;20559;-76
2023/12/01 05:45:01;;;;;;;40.70;21.70;;;;;;;-0.93;100.00;99838.56;5041469;28;20302;-75
2023/12/01 05:47:27;;;;;;;37.67;19.77;;;;;;;-0.94;100.00;99834.44;5041705;28;20215;-75
2023/12/01 05:49:55;;;;;;;41.70;21.77;;;;;;;-0.97;100.00;99836.50;5043048;28;20202;-75
2023/12/01 05:52:21;;;;;;;42.23;21.53;;;;;;;-0.97;100.00;99831.34;5039864;28;20282;-75
2023/12/01 05:54:48;;;;;;;37.40;20.83;;;;;;;-0.98;100.00;99851.56;5041477;28;20550;-74
2023/12/01 05:57:15;;;;;;;37.13;20.57;;;;;;;-0.99;100.00;99844.84;5041805;28;20220;-74
2023/12/01 05:59:42;;;;;;;41.57;21.27;;;;;;;-1.00;100.00;99851.06;5047500;28;20198;-74
2023/12/01 06:02:11;;;;;;;44.03;22.30;;;;;;;-1.02;100.00;99856.50;5038535;28;20679;-75
2023/12/01 06:04:37;;;;;;;43.13;21.40;;;;;;;-1.02;100.00;99853.91;5038108;28;20606;-74
2023/12/01 06:07:07;;;;;;;43.47;22.03;;;;;;;-1.02;100.00;99847.94;5046187;28;20698;-75
2023/12/01 06:09:34;;;;;;;37.60;20.47;;;;;;;-1.03;100.00;99849.78;5040151;28;20237;-75
2023/12/01 06:12:00;;;;;;;39.83;21.03;;;;;;;-1.04;100.00;99855.97;5041316;28;20253;-75
2023/12/01 06:14:27;;;;;;;40.93;20.87;;;;;;;-1.05;100.00;99857.03;5048208;28;20196;-74
2023/12/01 06:16:53;;;;;;;39.93;20.63;;;;;;;-1.07;100.00;99854.69;5043619;28;20234;-75
2023/12/01 06:19:20;;;;;;;41.47;21.77;;;;;;;-1.07;100.00;99854.69;5048569;28;20218;-74
2023/12/01 06:21:46;;;;;;;44.10;24.00;;;;;;;-1.07;100.00;99865.06;5048987;28;20485;-74
2023/12/01 06:24:14;;;;;;;47.07;24.97;;;;;;;-1.07;100.00;99861.72;5048997;28;20214;-75
2023/12/01 06:26:40;;;;;;;45.73;24.33;;;;;;;-1.07;100.00;99864.31;5046770;28;20290;-75
2023/12/01 06:29:07;;;;;;;43.80;24.70;;;;;;;-1.08;100.00;99855.75;5049570;28;20192;-74
2023/12/01 06:31:33;;;;;;;57.63;29.73;;;;;;;-1.07;100.00;99861.72;5043609;28;20203;-74
2023/12/01 06:34:00;;;;;;;54.67;27.97;;;;;;;-1.08;100.00;99853.16;5046798;28;20286;-75
2023/12/01 06:36:26;;;;;;;53.40;28.27;;;;;;;-1.09;100.00;99857.84;5042164;28;20218;-75
2023/12/01 06:38:53;;;;;;;56.60;29.80;;;;;;;-1.12;100.00;99857.31;5048328;28;20662;-75
2023/12/01 06:41:20;;;;;;;51.97;27.87;;;;;;;-1.13;100.00;99866.13;5047569;28;20211;-75
2023/12/01 06:43:47;;;;;;;49.10;26.47;;;;;;;-1.13;100.00;99863.53;5042197;28;20194;-75
2023/12/01 06:46:13;;;;;;;48.23;24.50;;;;;;;-1.14;100.00;99866.38;5042041;28;20211;-75
2023/12/01 06:48:39;;;;;;;41.63;22.80;;;;;;;-1.13;100.00;99867.19;5043152;28;20192;-74
2023/12/01 06:51:06;;;;;;;52.87;24.43;;;;;;;-1.13;100.00;99872.34;5046313;28;20666;-75
2023/12/01 06:53:33;;;;;;;43.90;23.53;;;;;;;-1.14;100.00;99876.75;5043014;28;20191;-75
2023/12/01 06:55:59;;;;;;;43.97;23.57;;;;;;;-1.15;100.00;99871.84;5043094;28;20222;-75
2023/12/01 06:58:28;;;;;;;42.50;22.13;;;;;;;-1.15;100.00;99877.03;5046587;28;20361;-75
2023/12/01 07:00:56;;;;;;;38.37;22.77;;;;;;;-1.16;100.00;99881.44;5041420;28;20226;-75
2023/12/01 07:03:22;;;;;;;44.10;23.37;;;;;;;-1.17;100.00;99885.06;5043873;28;20203;-74
2023/12/01 07:05:51;;;;;;;47.33;23.80;;;;;;;-1.18;100.00;99891.28;5048052;28;20345;-75
2023/12/01 07:08:19;;;;;;;44.43;23.70;;;;;;;-1.19;100.00;99894.16;5042633;28;20206;-75
2023/12/01 07:10:45;;;;;;;45.07;23.70;;;;;;;-1.18;100.00;99900.88;5043460;28;20187;-75
2023/12/01 07:13:12;;;;;;;45.33;24.37;;;;;;;-1.19;100.00;99904.50;5040438;28;20243;-75
2023/12/01 07:15:40;;;;;;;46.07;24.87;;;;;;;-1.19;100.00;99907.84;5047452;28;20206;-75
2023/12/01 07:18:06;;;;;;;43.30;23.07;;;;;;;-1.19;100.00;99909.69;5043518;28;20227;-74
2023/12/01 07:20:33;;;;;;;46.53;23.43;;;;;;;-1.18;100.00;99906.03;5039236;28;20200;-74
2023/12/01 07:23:00;;;;;;;53.67;25.60;;;;;;;-1.19;100.00;99907.09;5039543;28;20340;-75
2023/12/01 07:25:27;;;;;;;48.77;25.27;;;;;;;-1.19;100.00;99900.09;5037859;28;20757;-75
2023/12/01 07:27:55;;;;;;;45.00;23.23;;;;;;;-1.18;100.00;99913.81;5048006;28;20238;-75
2023/12/01 07:30:21;;;;;;;44.63;24.23;;;;;;;-1.20;100.00;99905.53;5046459;28;20535;-75
2023/12/01 07:32:50;;;;;;;48.03;24.50;;;;;;;-1.19;100.00;99912.28;5051413;28;20581;-74
2023/12/01 07:35:16;;;;;;;45.73;23.67;;;;;;;-1.20;100.00;99916.66;5047253;28;20549;-75
2023/12/01 07:37:43;;;;;;;42.87;23.90;;;;;;;-1.20;100.00;99916.66;5047370;28;20226;-75
2023/12/01 07:40:11;;;;;;;47.73;24.57;;;;;;;-1.19;100.00;99923.38;5046411;28;20203;-74
2023/12/01 07:42:37;;;;;;;46.97;25.00;;;;;;;-1.18;100.00;99935.31;5049452;28;20206;-74
2023/12/01 07:45:04;;;;;;;47.93;25.90;;;;;;;-1.17;100.00;99937.63;5046271;28;20199;-74
2023/12/01 07:47:31;;;;;;;49.30;25.43;;;;;;;-1.14;100.00;99938.16;5050741;28;20718;-75
2023/12/01 07:49:59;;;;;;;47.60;23.63;;;;;;;-1.14;100.00;99940.75;5049528;28;20199;-75
2023/12/01 07:52:26;;;;;;;53.33;25.60;;;;;;;-1.13;100.00;99950.84;5046334;28;20204;-75
2023/12/01 07:54:52;;;;;;;47.93;26.30;;;;;;;-1.13;100.00;99950.06;5044233;28;20195;-75
2023/12/01 07:57:19;;;;;;;51.17;27.43;;;;;;;-1.12;100.00;99958.34;5045908;28;20677;-76
2023/12/01 07:59:45;;;;;;;48.33;25.20;;;;;;;-1.11;100.00;99964.31;5049011;28;20249;-74
2023/12/01 08:02:11;;;;;;;47.83;25.67;;;;;;;-1.10;100.00;99960.66;5045155;28;20199;-75
2023/12/01 08:04:38;;;;;;;49.50;24.60;;;;;;;-1.08;100.00;99968.97;5048330;28;20670;-75
2023/12/01 08:07:06;;;;;;;44.47;25.17;;;;;;;-1.10;100.00;99954.72;5048249;28;20720;-75
2023/12/01 08:09:33;;;;;;;48.60;25.97;;;;;;;-1.11;100.00;99961.72;5045824;28;20210;-75
2023/12/01 08:12:00;;;;;;;50.73;24.83;;;;;;;-1.09;100.00;99967.41;5043070;28;20199;-75
2023/12/01 08:14:27;;;;;;;41.20;23.00;;;;;;;-1.10;100.00;99970.28;5041522;28;20211;-75
2023/12/01 08:16:53;;;;;;;43.57;24.10;;;;;;;-1.10;100.00;99967.69;5047653;28;20222;-75
2023/12/01 08:19:19;;;;;;;44.77;23.20;;;;;;;-1.09;100.00;99969.97;5045473;28;20207;-75
2023/12/01 08:21:46;;;;;;;47.23;25.20;;;;;;;-1.08;100.00;99975.97;5047569;28;20198;-75
2023/12/01 08:24:13;;;;;;;50.23;25.23;;;;;;;-1.09;100.00;99977.00;5037497;28;20286;-75
2023/12/01 08:26:41;;;;;;;46.10;23.70;;;;;;;-1.09;100.00;99990.72;5049514;28;20713;-75
2023/12/01 08:29:07;;;;;;;46.93;25.53;;;;;;;-1.08;100.00;99985.28;5051242;28;20277;-75
2023/12/01 08:31:33;;;;;;;42.70;24.87;;;;;;;-1.07;100.00;99988.66;5051996;28;20550;-75
2023/12/01 08:34:01;;;;;;;47.07;25.13;;;;;;;-1.07;100.00;99986.81;5048436;28;20192;-75
2023/12/01 08:36:27;;;;;;;49.73;27.03;;;;;;;-1.05;100.00;99985.81;5050621;28;20226;-74
2023/12/01 08:38:53;;;;;;;59.37;29.30;;;;;;;-1.03;100.00;99987.09;5047945;28;20228;-74
2023/12/01 08:41:21;;;;;;;51.90;27.50;;;;;;;-1.02;100.00;99990.44;5047048;28;20202;-74
2023/12/01 08:43:48;;;;;;;53.63;26.07;;;;;;;-1.00;100.00;99994.31;5049059;28;20214;-74
2023/12/01 08:46:14;;;;;;;48.63;26.13;;;;;;;-0.97;100.00;99994.56;5047240;28;20223;-75
2023/12/01 08:48:40;;;;;;;44.13;23.87;;;;;;;-0.93;100.00;99999.22;5052142;28;20195;-75
2023/12/01 08:51:07;;;;;;;45.87;24.17;;;;;;;-0.89;100.00;99995.06;5048434;28;20212;-75
2023/12/01 08:53:34;;;;;;;48.23;24.73;;;;;;;-0.84;100.00;100002.84;5046174;28;20188;-75
2023/12/01 08:56:00;;;;;;;47.37;23.87;;;;;;;-0.82;100.00;99996.34;5042730;28;20306;-75
2023/12/01 08:58:28;;;;;;;48.93;24.90;;;;;;;-0.78;100.00;99994.00;5046613;28;20199;-74
2023/12/01 09:00:54;;;;;;;50.10;26.50;;;;;;;-0.77;100.00;100000.72;5046779;28;20749;-75
2023/12/01 09:03:21;;;;;;;49.17;24.87;;;;;;;-0.74;100.00;99997.63;5043670;28;20200;-74
2023/12/01 09:05:48;;;;;;;50.93;25.80;;;;;;;-0.70;100.00;100004.59;5049472;28;20207;-75
2023/12/01 09:08:15;;;;;;;45.50;23.87;;;;;;;-0.65;100.00;100009.75;5041171;28;20287;-75
2023/12/01 09:10:42;;;;;;;46.40;24.17;;;;;;;-0.63;100.00;100021.41;5046835;28;20625;-75
2023/12/01 09:13:08;;;;;;;48.57;24.73;;;;;;;-0.57;100.00;100024.75;5046653;28;20203;-75
2023/12/01 09:15:36;;;;;;;42.00;22.23;;;;;;;-0.55;100.00;100040.81;5046865;28;20199;-75
2023/12/01 09:18:02;;;;;;;46.30;25.23;;;;;;;-0.52;100.00;100037.69;5050303;28;20211;-74
2023/12/01 09:20:29;;;;;;;62.63;29.73;;;;;;;-0.47;100.00;100031.72;5048053;28;20195;-74
2023/12/01 09:22:55;;;;;;;50.80;26.70;;;;;;;-0.43;100.00;100030.91;5048344;28;20216;-74
2023/12/01 09:25:23;;;;;;;53.37;25.00;;;;;;;-0.39;100.00;100026.75;5048335;28;20287;-75
2023/12/01 09:27:49;;;;;;;41.73;21.70;;;;;;;-0.36;100.00;100031.41;5044994;28;20214;-74
2023/12/01 09:30:16;;;;;;;43.77;22.60;;;;;;;-0.32;100.00;100023.88;5045705;28;20199;-74
2023/12/01 09:32:44;;;;;;;56.73;25.13;;;;;;;-0.29;100.00;100024.13;5048982;28;20204;-75
2023/12/01 09:35:10;;;;;;;45.87;23.80;;;;;;;-0.26;100.00;100031.34;5046163;28;20278;-74
2023/12/01 09:37:37;;;;;;;42.17;22.13;;;;;;;-0.20;100.00;100033.66;5042520;28;20281;-74
2023/12/01 09:40:06;;;;;;;55.53;25.73;;;;;;;-0.17;100.00;100026.38;5044739;28;20249;-74
2023/12/01 09:42:33;;;;;;;40.53;22.60;;;;;;;-0.13;99.68;100028.97;5061544;28;20196;-74
2023/12/01 09:45:01;;;;;;;40.50;20.67;;;;;;;-0.11;100.00;100026.84;5052521;28;20294;-75
2023/12/01 09:47:31;;;;;;;50.80;24.43;;;;;;;-0.10;98.67;100027.66;5057487;28;20694;-74
2023/12/01 09:49:59;;;;;;;74.07;32.67;;;;;;;-0.07;99.49;100032.28;5054890;28;20195;-74
2023/12/01 09:52:26;;;;;;;49.30;25.07;;;;;;;-0.03;99.51;100034.09;5053103;28;20209;-75
2023/12/01 09:54:52;;;;;;;41.73;22.23;;;;;;;-0.01;98.55;100031.19;5056542;28;20203;-75
2023/12/01 09:57:20;;;;;;;59.63;27.00;;;;;;;0.04;99.13;100031.16;5051662;28;20230;-75
2023/12/01 09:59:48;;;;;;;51.30;25.47;;;;;;;0.07;99.34;100028.06;5050733;28;20211;-75
2023/12/01 10:02:15;;;;;;;35.23;20.37;;;;;;;0.08;99.18;100029.59;5051256;28;20202;-74
2023/12/01 10:04:42;;;;;;;40.63;22.70;;;;;;;0.08;98.48;100019.22;5076380;28;20701;-75
2023/12/01 10:07:09;;;;;;;40.33;21.17;;;;;;;0.07;97.48;100015.84;5049073;28;20684;-75
2023/12/01 10:09:36;;;;;;;34.27;19.80;;;;;;;0.11;99.70;100016.09;5044637;28;20211;-72
2023/12/01 10:12:08;;;;;;;38.40;19.73;;;;;;;0.13;100.00;100030.34;5053372;28;20203;-72
2023/12/01 10:14:35;;;;;;;39.63;19.17;;;;;;;0.13;99.47;100026.97;5049108;28;20196;-72
2023/12/01 10:17:03;;;;;;;38.53;20.77;;;;;;;0.14;99.17;100026.69;5044697;28;20219;-72
2023/12/01 10:19:31;;;;;;;35.63;19.33;;;;;;;0.15;99.65;100015.25;5055963;28;20203;-72
2023/12/01 10:21:58;;;;;;;36.33;19.47;;;;;;;0.16;100.00;100021.25;5042300;28;20191;-72
2023/12/01 10:24:26;;;;;;;39.63;19.00;;;;;;;0.16;100.00;100027.19;5046386;28;20203;-72
2023/12/01 10:26:56;;;;;;;34.40;19.23;;;;;;;0.17;99.67;100027.97;5046181;28;20504;-72
2023/12/01 10:29:28;;;;;;;33.30;17.43;;;;;;;0.19;100.00;100028.47;5048980;28;20206;-72
2023/12/01 10:31:56;;;;;;;32.47;18.40;;;;;;;0.16;99.74;100040.19;5045212;28;20612;-72
2023/12/01 10:34:23;;;;;;;33.93;17.87;;;;;;;0.18;99.50;100030.31;5046388;28;20221;-72
2023/12/01 10:36:52;;;;;;;35.67;18.23;;;;;;;0.21;99.20;100034.94;5043743;28;20222;-72
2023/12/01 10:39:20;;;;;;;36.93;19.80;;;;;;;0.24;98.98;100038.81;5046688;28;20519;-72
2023/12/01 10:41:49;;;;;;;33.27;18.90;;;;;;;0.26;98.36;100029.72;5046795;28;20204;-72
2023/12/01 10:44:17;;;;;;;30.77;17.03;;;;;;;0.24;97.03;100026.63;5045027;28;20605;-72
2023/12/01 10:46:46;;;;;;;33.83;19.30;;;;;;;0.22;95.78;100023.50;5041987;28;20215;-72
2023/12/01 10:49:14;;;;;;;35.57;20.33;;;;;;;0.25;96.23;100022.97;5046388;28;20241;-72
2023/12/01 10:51:41;;;;;;;32.27;19.57;;;;;;;0.25;98.47;100020.38;5044428;28;20191;-72
2023/12/01 10:54:10;;;;;;;31.77;17.10;;;;;;;0.25;99.11;100015.19;5050925;28;20249;-73
2023/12/01 10:56:45;;;;;;;30.87;16.83;;;;;;;0.24;98.59;100023.25;5043388;28;20226;-73
2023/12/01 10:59:19;;;;;;;29.43;15.70;;;;;;;0.24;99.24;100025.84;5045640;28;20680;-73
2023/12/01 11:01:48;;;;;;;31.33;16.33;;;;;;;0.23;100.00;100024.31;5042781;28;20245;-73
2023/12/01 11:04:22;;;;;;;29.40;15.43;;;;;;;0.19;99.56;100026.66;5042513;28;20484;-73
2023/12/01 11:07:07;;;;;;;29.63;15.43;;;;;;;0.20;99.19;100027.44;5046591;28;20739;-73
2023/12/01 11:09:40;;;;;;;28.47;15.83;;;;;;;0.18;98.61;100030.31;5041956;28;20733;-73